createdAt,value
2023-03-06T00:01:19.620Z,10.90
2023-03-06T00:03:48.026Z,9.17
2023-03-06T00:06:16.496Z,9.53
2023-03-06T00:08:47.433Z,8.27
2023-03-06T00:11:18.201Z,8.97
2023-03-06T00:13:51.692Z,11.57
2023-03-06T00:16:20.200Z,8.57
2023-03-06T00:18:52.893Z,8.23
2023-03-06T00:21:23.761Z,9.07
2023-03-06T00:23:51.040Z,8.03
2023-03-06T00:26:23.030Z,8.47
2023-03-06T00:28:52.711Z,9.33
2023-03-06T00:31:25.692Z,7.97
2023-03-06T00:33:54.153Z,8.23
2023-03-06T00:36:23.673Z,7.83
2023-03-06T00:38:55.298Z,7.43
2023-03-06T00:41:28.121Z,7.27
2023-03-06T00:44:01.771Z,7.63
2023-03-06T00:46:32.988Z,7.60
2023-03-06T00:49:03.609Z,7.93
2023-03-06T00:51:34.310Z,7.20
2023-03-06T00:54:02.815Z,6.73
2023-03-06T00:56:33.234Z,7.60
2023-03-06T00:59:05.121Z,6.60
2023-03-06T01:01:37.697Z,7.20
2023-03-06T01:04:05.878Z,6.20
2023-03-06T01:06:35.522Z,6.57
2023-03-06T01:09:05.551Z,5.97
2023-03-06T01:11:36.011Z,6.17
2023-03-06T01:14:05.625Z,5.27
2023-03-06T01:16:33.938Z,7.13
2023-03-06T01:19:02.006Z,6.80
2023-03-06T01:21:32.147Z,5.33
2023-03-06T01:24:00.980Z,5.47
2023-03-06T01:26:31.228Z,5.50
2023-03-06T01:29:01.255Z,6.73
2023-03-06T01:31:29.078Z,6.00
2023-03-06T01:34:00.492Z,5.20
2023-03-06T01:36:31.286Z,6.23
2023-03-06T01:38:59.687Z,6.30
2023-03-06T01:41:28.960Z,5.87
2023-03-06T01:44:04.019Z,6.70
2023-03-06T01:46:43.653Z,6.13
2023-03-06T01:49:39.319Z,5.90
2023-03-06T01:52:20.650Z,5.90
2023-03-06T01:55:13.330Z,5.33
2023-03-06T01:57:53.897Z,5.30
2023-03-06T02:00:30.145Z,4.90
2023-03-06T02:03:07.470Z,5.63
2023-03-06T02:05:46.391Z,6.73
2023-03-06T02:08:21.573Z,5.70
2023-03-06T02:11:19.114Z,5.10
2023-03-06T02:13:55.941Z,4.87
2023-03-06T02:16:52.817Z,6.23
2023-03-06T02:20:01.485Z,5.70
2023-03-06T02:23:08.646Z,5.43
2023-03-06T02:26:04.709Z,4.60
2023-03-06T02:28:31.743Z,4.80
2023-03-06T02:31:02.578Z,4.90
2023-03-06T02:33:33.118Z,5.80
2023-03-06T02:36:24.629Z,6.77
2023-03-06T02:38:57.663Z,5.27
2023-03-06T02:41:28.608Z,5.23
2023-03-06T02:43:59.586Z,5.43
2023-03-06T02:46:29.456Z,4.63
2023-03-06T02:48:59.429Z,6.53
2023-03-06T02:51:31.484Z,5.77
2023-03-06T02:54:00.048Z,5.07
2023-03-06T02:56:32.979Z,4.63
2023-03-06T02:59:04.967Z,5.13
2023-03-06T03:01:35.221Z,5.53
2023-03-06T03:04:06.994Z,4.73
2023-03-06T03:09:26.079Z,4.90
2023-03-06T03:11:56.867Z,4.83
2023-03-06T03:14:27.242Z,5.53
2023-03-06T03:16:57.531Z,5.03
2023-03-06T03:19:28.899Z,4.30
2023-03-06T03:21:58.592Z,5.53
2023-03-06T03:24:26.715Z,5.00
2023-03-06T03:26:58.948Z,4.80
2023-03-06T03:29:27.760Z,4.67
2023-03-06T03:31:59.558Z,5.63
2023-03-06T03:34:28.915Z,6.90
2023-03-06T03:36:58.341Z,4.43
2023-03-06T03:39:30.381Z,6.43
2023-03-06T03:41:59.447Z,6.90
2023-03-06T03:44:28.733Z,5.53
2023-03-06T03:46:59.765Z,5.87
2023-03-06T03:49:26.820Z,6.10
2023-03-06T03:51:58.782Z,5.03
2023-03-06T03:54:34.519Z,5.47
2023-03-06T03:57:05.171Z,5.77
2023-03-06T03:59:39.335Z,5.10
2023-03-06T04:02:26.775Z,6.20
2023-03-06T04:05:16.857Z,9.60
2023-03-06T04:07:46.593Z,8.30
2023-03-06T04:10:22.304Z,10.23
2023-03-06T04:12:54.006Z,17.37
2023-03-06T04:15:26.850Z,25.27
2023-03-06T04:17:57.362Z,24.50
2023-03-06T04:20:28.909Z,26.03
2023-03-06T04:23:07.395Z,21.80
2023-03-06T04:25:39.063Z,15.03
2023-03-06T04:28:12.606Z,10.27
2023-03-06T04:30:43.446Z,10.03
2023-03-06T04:33:10.973Z,14.57
2023-03-06T04:35:39.576Z,16.77
2023-03-06T04:38:18.047Z,19.60
2023-03-06T04:40:47.247Z,15.17
2023-03-06T04:43:18.272Z,16.77
2023-03-06T04:45:48.267Z,16.27
2023-03-06T04:48:20.956Z,21.00
2023-03-06T04:50:54.298Z,20.00
2023-03-06T04:53:23.985Z,13.10
2023-03-06T04:55:53.317Z,23.90
2023-03-06T04:58:24.232Z,21.97
2023-03-06T05:00:55.876Z,20.55
2023-03-06T05:03:27.830Z,18.20
2023-03-06T05:06:00.282Z,10.67
2023-03-06T05:08:29.087Z,9.57
2023-03-06T05:11:04.290Z,7.43
2023-03-06T05:13:37.114Z,6.23
2023-03-06T05:16:08.591Z,6.83
2023-03-06T05:18:41.269Z,8.27
2023-03-06T05:21:13.207Z,6.93
2023-03-06T05:23:43.247Z,6.40
2023-03-06T05:26:12.482Z,7.43
2023-03-06T05:28:41.142Z,5.27
2023-03-06T05:31:08.534Z,6.23
2023-03-06T05:33:39.257Z,4.77
2023-03-06T05:36:11.784Z,5.10
2023-03-06T05:38:43.464Z,5.47
2023-03-06T05:41:16.450Z,6.17
2023-03-06T05:43:46.672Z,6.30
2023-03-06T05:46:17.289Z,6.43
2023-03-06T05:48:48.883Z,5.80
2023-03-06T05:51:20.376Z,5.63
2023-03-06T05:53:50.435Z,6.00
2023-03-06T05:56:19.381Z,6.70
2023-03-06T05:58:53.926Z,6.17
2023-03-06T06:01:25.319Z,6.40
2023-03-06T06:03:56.275Z,7.00
2023-03-06T06:06:26.833Z,6.90
2023-03-06T06:08:57.232Z,7.03
2023-03-06T06:11:28.686Z,6.87
2023-03-06T06:14:00.358Z,7.40
2023-03-06T06:16:28.616Z,6.43
2023-03-06T06:18:58.061Z,6.37
2023-03-06T06:21:30.625Z,7.03
2023-03-06T06:24:07.582Z,7.93
2023-03-06T06:26:38.275Z,6.97
2023-03-06T06:29:10.562Z,9.30
2023-03-06T06:31:39.227Z,8.60
2023-03-06T06:34:11.053Z,8.93
2023-03-06T06:36:41.949Z,8.13
2023-03-06T06:39:13.001Z,8.30
2023-03-06T06:41:59.329Z,7.50
2023-03-06T06:44:33.234Z,7.77
2023-03-06T06:47:23.943Z,8.20
2023-03-06T06:49:55.003Z,8.50
2023-03-06T06:52:24.241Z,8.20
2023-03-06T06:54:55.624Z,8.33
2023-03-06T06:57:25.164Z,9.00
2023-03-06T07:00:05.444Z,8.03
2023-03-06T07:02:38.119Z,8.32
2023-03-06T07:05:08.772Z,7.28
2023-03-06T07:07:41.627Z,9.50
2023-03-06T07:10:18.356Z,8.13
2023-03-06T07:12:50.448Z,8.20
2023-03-06T07:15:22.989Z,8.37
2023-03-06T07:17:53.089Z,9.23
2023-03-06T07:20:25.842Z,8.07
2023-03-06T07:22:57.262Z,8.57
2023-03-06T07:25:28.542Z,9.70
2023-03-06T07:27:57.433Z,8.67
2023-03-06T07:30:28.742Z,9.60
2023-03-06T07:33:01.856Z,10.23
2023-03-06T07:35:33.533Z,9.17
2023-03-06T07:38:04.064Z,11.17
2023-03-06T07:40:35.029Z,11.07
2023-03-06T07:43:18.736Z,11.45
2023-03-06T07:46:10.907Z,11.93
2023-03-06T07:48:43.934Z,12.90
2023-03-06T07:51:20.863Z,14.27
2023-03-06T07:53:54.211Z,11.40
2023-03-06T07:56:25.493Z,12.77
2023-03-06T07:58:59.035Z,12.93
2023-03-06T08:01:30.214Z,13.30
2023-03-06T08:04:09.048Z,11.67
2023-03-06T08:06:39.739Z,16.03
2023-03-06T08:09:12.094Z,12.67
2023-03-06T08:11:40.744Z,12.00
2023-03-06T08:14:10.164Z,11.77
2023-03-06T08:16:42.778Z,14.87
2023-03-06T08:19:10.941Z,13.50
2023-03-06T08:21:42.765Z,16.43
2023-03-06T08:24:15.738Z,14.70
2023-03-06T08:26:50.015Z,14.67
2023-03-06T08:29:25.904Z,14.63
2023-03-06T08:31:57.308Z,13.33
2023-03-06T08:34:30.258Z,15.13
2023-03-06T08:37:02.217Z,12.93
2023-03-06T08:39:33.492Z,13.30
2023-03-06T08:42:04.135Z,14.13
2023-03-06T08:44:33.526Z,14.43
2023-03-06T08:47:05.079Z,12.67
2023-03-06T08:49:37.499Z,12.90
2023-03-06T08:52:07.266Z,12.30
2023-03-06T08:54:36.645Z,12.63
2023-03-06T08:57:04.875Z,10.17
2023-03-06T08:59:36.369Z,13.67
2023-03-06T09:02:07.376Z,14.00
2023-03-06T09:04:37.635Z,12.67
2023-03-06T09:07:10.494Z,12.77
2023-03-06T09:09:40.870Z,10.83
2023-03-06T09:12:11.549Z,11.83
2023-03-06T09:14:44.323Z,13.40
2023-03-06T09:17:15.095Z,11.40
2023-03-06T09:19:42.338Z,12.87
2023-03-06T09:22:11.990Z,12.43
2023-03-06T09:24:44.222Z,12.27
2023-03-06T09:27:14.833Z,12.43
2023-03-06T09:29:42.921Z,12.10
2023-03-06T09:32:12.278Z,11.27
2023-03-06T09:34:44.609Z,12.10
2023-03-06T09:37:16.318Z,12.13
2023-03-06T09:39:45.538Z,12.03
2023-03-06T09:42:23.842Z,12.53
2023-03-06T09:45:01.921Z,11.60
2023-03-06T09:48:00.544Z,12.23
2023-03-06T09:50:45.636Z,13.60
2023-03-06T09:53:58.815Z,12.97
2023-03-06T09:56:32.114Z,11.60
2023-03-06T09:59:19.522Z,10.83
2023-03-06T10:02:14.294Z,10.87
2023-03-06T10:04:50.866Z,10.47
2023-03-06T10:07:47.945Z,12.10
2023-03-06T10:10:27.311Z,12.80
2023-03-06T10:13:13.841Z,12.53
2023-03-06T10:15:47.731Z,10.23
2023-03-06T10:18:20.393Z,13.03
2023-03-06T10:21:22.186Z,11.03
2023-03-06T10:24:11.930Z,12.20
2023-03-06T10:26:49.298Z,14.33
2023-03-06T10:30:03.521Z,14.77
2023-03-06T10:33:02.035Z,13.20
2023-03-06T10:35:53.853Z,10.80
2023-03-06T10:38:43.297Z,12.07
2023-03-06T10:41:19.708Z,12.63
2023-03-06T10:44:23.741Z,13.43
2023-03-06T10:46:56.959Z,13.73
2023-03-06T10:49:56.542Z,11.70
2023-03-06T10:52:26.150Z,13.37
2023-03-06T10:54:55.225Z,13.80
2023-03-06T10:57:31.466Z,13.40
2023-03-06T11:00:24.017Z,11.80
2023-03-06T11:03:26.804Z,13.50
2023-03-06T11:06:37.013Z,12.73
2023-03-06T11:09:32.376Z,14.07
2023-03-06T11:12:41.901Z,11.60
2023-03-06T11:15:22.526Z,14.93
2023-03-06T11:18:28.430Z,13.47
2023-03-06T11:20:58.550Z,14.10
2023-03-06T11:23:40.318Z,12.50
2023-03-06T11:26:30.276Z,12.07
2023-03-06T11:29:35.708Z,12.97
2023-03-06T11:32:27.008Z,11.73
2023-03-06T11:35:14.823Z,12.27
2023-03-06T11:38:22.212Z,12.80
2023-03-06T11:41:01.673Z,12.83
2023-03-06T11:44:07.531Z,14.90
2023-03-06T11:47:02.614Z,12.30
2023-03-06T11:50:14.512Z,13.27
2023-03-06T11:53:02.800Z,13.77
2023-03-06T11:55:43.291Z,11.33
2023-03-06T11:58:42.341Z,14.47
2023-03-06T12:01:40.586Z,12.57
2023-03-06T12:04:42.208Z,11.97
2023-03-06T12:07:42.093Z,13.70
2023-03-06T12:10:19.557Z,10.43
2023-03-06T12:13:28.407Z,9.23
2023-03-06T12:16:28.926Z,10.47
2023-03-06T12:19:22.799Z,12.23
2023-03-06T12:22:31.241Z,13.17
2023-03-06T12:25:11.939Z,10.57
2023-03-06T12:28:01.454Z,9.77
2023-03-06T12:30:53.199Z,8.73
2023-03-06T12:33:27.563Z,9.10
2023-03-06T12:36:33.465Z,10.03
2023-03-06T12:39:17.258Z,9.33
2023-03-06T12:42:26.994Z,9.23
2023-03-06T12:45:17.152Z,9.17
2023-03-06T12:47:51.739Z,11.03
2023-03-06T12:50:41.588Z,10.63
2023-03-06T12:53:18.454Z,10.73
2023-03-06T12:56:06.291Z,11.13
2023-03-06T12:58:56.294Z,14.70
2023-03-06T13:01:47.805Z,13.77
2023-03-06T13:04:47.019Z,14.67
2023-03-06T13:08:09.282Z,11.50
2023-03-06T13:10:45.094Z,13.20
2023-03-06T13:13:36.216Z,14.70
2023-03-06T13:16:11.872Z,13.57
2023-03-06T13:18:47.068Z,15.50
2023-03-06T13:21:55.197Z,17.13
2023-03-06T13:24:46.761Z,16.00
2023-03-06T13:27:56.775Z,16.17
2023-03-06T13:30:53.258Z,18.20
2023-03-06T13:33:33.036Z,18.67
2023-03-06T13:36:23.736Z,16.33
2023-03-06T13:39:13.863Z,18.37
2023-03-06T13:42:01.957Z,16.43
2023-03-06T13:44:34.889Z,17.90
2023-03-06T13:48:21.174Z,17.93
2023-03-06T13:50:49.830Z,15.63
2023-03-06T13:53:57.612Z,14.40
2023-03-06T13:56:53.079Z,17.20
2023-03-06T13:59:57.040Z,14.20
2023-03-06T14:03:17.089Z,19.10
2023-03-06T14:05:52.803Z,15.60
2023-03-06T14:08:30.704Z,14.03
2023-03-06T14:11:24.464Z,15.43
2023-03-06T14:13:59.077Z,16.97
2023-03-06T14:16:43.760Z,16.37
2023-03-06T14:19:18.706Z,16.60
2023-03-06T14:22:04.368Z,14.77
2023-03-06T14:24:48.426Z,18.17
2023-03-06T14:27:20.593Z,15.40
2023-03-06T14:29:54.671Z,23.57
2023-03-06T14:32:28.756Z,18.03
2023-03-06T14:34:58.030Z,15.90
2023-03-06T14:37:32.147Z,13.93
2023-03-06T14:40:00.109Z,13.10
2023-03-06T14:42:30.519Z,14.47
2023-03-06T14:45:18.920Z,16.20
2023-03-06T14:47:53.298Z,15.10
2023-03-06T14:50:42.050Z,13.73
2023-03-06T14:53:31.928Z,13.80
2023-03-06T14:56:06.894Z,16.23
2023-03-06T14:59:11.393Z,12.77
2023-03-06T15:01:50.008Z,13.60
2023-03-06T15:04:26.737Z,14.27
2023-03-06T15:07:01.907Z,15.30
2023-03-06T15:09:35.129Z,16.27
2023-03-06T15:12:23.684Z,15.07
2023-03-06T15:15:11.773Z,12.93
2023-03-06T15:18:01.819Z,14.00
2023-03-06T15:21:01.376Z,14.20
2023-03-06T15:24:00.535Z,15.23
2023-03-06T15:26:33.250Z,15.80
2023-03-06T15:29:26.723Z,13.67
2023-03-06T15:32:14.895Z,13.45
2023-03-06T15:34:47.434Z,14.67
2023-03-06T15:37:31.471Z,13.53
2023-03-06T15:40:29.453Z,15.13
2023-03-06T15:42:58.866Z,15.33
2023-03-06T15:45:30.621Z,14.03
2023-03-06T15:47:59.328Z,12.50
2023-03-06T15:50:32.212Z,13.07
2023-03-06T15:53:01.952Z,12.97
2023-03-06T15:55:40.957Z,14.30
2023-03-06T15:58:19.365Z,14.37
2023-03-06T16:00:48.228Z,12.97
2023-03-06T16:03:17.668Z,13.47
2023-03-06T16:05:50.491Z,14.93
2023-03-06T16:08:23.223Z,14.23
2023-03-06T16:10:54.758Z,14.67
2023-03-06T16:13:28.464Z,19.40
2023-03-06T16:16:04.220Z,23.43
2023-03-06T16:18:33.827Z,22.80
2023-03-06T16:21:06.073Z,20.60
2023-03-06T16:23:40.704Z,34.13
2023-03-06T16:26:24.459Z,24.93
2023-03-06T16:28:59.392Z,24.07
2023-03-06T16:31:27.162Z,24.47
2023-03-06T16:33:54.978Z,21.37
2023-03-06T16:36:29.228Z,21.90
2023-03-06T16:39:07.296Z,21.50
2023-03-06T16:41:43.562Z,24.87
2023-03-06T16:44:16.390Z,21.80
2023-03-06T16:46:47.959Z,23.33
2023-03-06T16:49:40.403Z,29.10
2023-03-06T16:52:11.526Z,22.80
2023-03-06T16:54:44.243Z,17.23
2023-03-06T16:57:20.115Z,15.73
2023-03-06T16:59:50.975Z,16.53
2023-03-06T17:02:20.561Z,16.60
2023-03-06T17:04:55.626Z,14.73
2023-03-06T17:07:24.502Z,17.43
2023-03-06T17:09:55.105Z,18.70
2023-03-06T17:12:25.950Z,20.47
2023-03-06T17:14:56.602Z,17.47
2023-03-06T17:17:30.582Z,19.40
2023-03-06T17:20:09.561Z,21.53
2023-03-06T17:22:37.010Z,18.97
2023-03-06T17:25:11.604Z,19.83
2023-03-06T17:27:42.454Z,18.57
2023-03-06T17:30:14.843Z,20.43
2023-03-06T17:32:44.864Z,19.33
2023-03-06T17:35:15.515Z,16.67
2023-03-06T17:37:52.231Z,16.43
2023-03-06T17:40:28.634Z,18.03
2023-03-06T17:42:59.103Z,20.57
2023-03-06T17:45:32.820Z,23.27
2023-03-06T17:48:16.997Z,20.50
2023-03-06T17:51:00.232Z,17.87
2023-03-06T17:53:36.543Z,19.17
2023-03-06T17:56:11.976Z,20.87
2023-03-06T17:58:44.944Z,19.23
2023-03-06T18:01:24.906Z,25.00
2023-03-06T18:04:00.564Z,22.07
2023-03-06T18:09:22.047Z,21.37
2023-03-06T18:12:06.308Z,22.17
2023-03-06T18:14:37.887Z,23.30
2023-03-06T18:19:54.450Z,22.07
2023-03-06T18:22:27.039Z,19.53
2023-03-06T18:25:00.438Z,20.50
2023-03-06T18:27:36.262Z,22.97
2023-03-06T18:30:11.705Z,21.37
2023-03-06T18:32:45.615Z,35.40
2023-03-06T18:35:19.820Z,31.27
2023-03-06T18:37:51.992Z,28.80
2023-03-06T18:40:28.343Z,23.87
2023-03-06T18:45:45.384Z,28.30
2023-03-06T18:48:26.425Z,25.07
2023-03-06T18:50:59.597Z,26.93
2023-03-06T18:53:33.964Z,23.17
2023-03-06T18:56:07.790Z,23.93
2023-03-06T18:58:44.224Z,24.65
2023-03-06T19:01:22.507Z,22.57
2023-03-06T19:03:54.348Z,24.60
2023-03-06T19:06:28.025Z,29.03
2023-03-06T19:09:01.857Z,26.83
2023-03-06T19:14:33.058Z,22.60
2023-03-06T19:17:02.420Z,21.40
2023-03-06T19:19:31.552Z,22.05
2023-03-06T19:22:02.554Z,19.97
2023-03-06T19:24:39.328Z,18.10
2023-03-06T19:30:07.869Z,19.77
2023-03-06T19:32:36.424Z,18.73
2023-03-06T19:35:05.987Z,16.83
2023-03-06T19:37:35.108Z,17.30
2023-03-06T19:40:09.338Z,18.47
2023-03-06T19:42:39.898Z,18.83
2023-03-06T19:45:09.195Z,19.43
2023-03-06T19:47:38.743Z,17.65
2023-03-06T19:52:48.511Z,20.23
2023-03-06T19:55:24.995Z,17.97
2023-03-06T19:57:54.427Z,19.33
2023-03-06T20:00:22.615Z,17.53
2023-03-06T20:02:51.591Z,17.13
2023-03-06T20:05:24.052Z,17.27
2023-03-06T20:07:52.688Z,19.50
2023-03-06T20:10:21.338Z,18.57
2023-03-06T20:12:51.317Z,17.70
2023-03-06T20:15:21.986Z,17.97
2023-03-06T20:17:52.156Z,16.87
2023-03-06T20:20:22.758Z,18.40
2023-03-06T20:22:53.038Z,18.10
2023-03-06T20:25:22.093Z,20.40
2023-03-06T20:27:52.322Z,17.37
2023-03-06T20:30:21.632Z,18.30
2023-03-06T20:32:53.054Z,18.40
2023-03-06T20:35:21.799Z,18.17
2023-03-06T20:37:53.169Z,18.83
2023-03-06T20:40:21.638Z,17.03
2023-03-06T20:42:51.726Z,17.90
2023-03-06T20:45:19.893Z,18.20
2023-03-06T20:47:49.489Z,17.97
2023-03-06T20:50:17.488Z,17.40
2023-03-06T20:52:45.241Z,17.13
2023-03-06T20:55:14.789Z,18.33
2023-03-06T20:57:42.823Z,21.70
2023-03-06T21:00:12.398Z,19.73
2023-03-06T21:02:40.133Z,38.10
2023-03-06T21:05:08.150Z,38.00
2023-03-06T21:07:36.535Z,36.37
2023-03-06T21:10:04.186Z,25.37
2023-03-06T21:12:33.255Z,22.93
2023-03-06T21:15:00.620Z,22.20
2023-03-06T21:17:30.286Z,20.50
2023-03-06T21:19:58.855Z,18.37
2023-03-06T21:22:26.200Z,17.93
2023-03-06T21:24:53.495Z,20.30
2023-03-06T21:27:20.880Z,19.43
2023-03-06T21:29:48.254Z,19.10
2023-03-06T21:32:15.261Z,18.47
2023-03-06T21:34:42.789Z,18.00
2023-03-06T21:37:10.101Z,17.03
2023-03-06T21:39:37.409Z,18.17
2023-03-06T21:42:04.457Z,18.93
2023-03-06T21:44:31.508Z,19.00
2023-03-06T21:46:58.956Z,17.70
2023-03-06T21:49:26.837Z,18.20
2023-03-06T21:51:53.821Z,17.50
2023-03-06T21:54:21.355Z,18.13
2023-03-06T21:56:48.387Z,16.57
2023-03-06T21:59:15.383Z,16.83
2023-03-06T22:01:42.782Z,18.13
2023-03-06T22:04:09.943Z,18.05
2023-03-06T22:06:39.469Z,16.70
2023-03-06T22:09:06.862Z,18.07
2023-03-06T22:11:37.288Z,16.20
2023-03-06T22:14:05.662Z,18.17
2023-03-06T22:16:33.376Z,18.30
2023-03-06T22:19:00.669Z,18.97
2023-03-06T22:21:27.924Z,18.03
2023-03-06T22:24:02.132Z,17.17
2023-03-06T22:26:30.048Z,18.47
2023-03-06T22:29:00.021Z,18.37
2023-03-06T22:31:28.886Z,20.20
2023-03-06T22:33:59.055Z,18.03
2023-03-06T22:36:27.754Z,18.70
2023-03-06T22:38:57.277Z,18.07
2023-03-06T22:41:26.794Z,21.60
2023-03-06T22:43:57.544Z,18.37
2023-03-06T22:46:25.530Z,19.27
2023-03-06T22:48:52.765Z,17.93
2023-03-06T22:51:20.941Z,18.40
2023-03-06T22:53:50.324Z,19.40
2023-03-06T22:56:19.527Z,16.57
2023-03-06T22:58:47.405Z,17.43
2023-03-06T23:01:19.207Z,19.17
2023-03-06T23:03:48.766Z,19.07
2023-03-06T23:06:23.759Z,18.60
2023-03-06T23:08:54.113Z,19.30
2023-03-06T23:11:23.567Z,19.13
2023-03-06T23:14:12.214Z,19.50
2023-03-06T23:16:58.217Z,19.50
2023-03-06T23:19:43.719Z,18.03
2023-03-06T23:22:29.302Z,19.47
2023-03-06T23:25:14.894Z,19.13
2023-03-06T23:27:42.232Z,19.53
2023-03-06T23:30:09.910Z,19.77
2023-03-06T23:32:36.956Z,18.60
2023-03-06T23:35:04.130Z,20.70
2023-03-06T23:37:32.117Z,18.80
2023-03-06T23:40:02.198Z,19.13
2023-03-06T23:42:29.207Z,17.83
2023-03-06T23:44:56.620Z,16.87
2023-03-06T23:47:23.533Z,18.33
2023-03-06T23:49:53.442Z,18.90
2023-03-06T23:52:20.405Z,18.87
2023-03-06T23:54:49.951Z,18.50
2023-03-06T23:57:16.900Z,19.77
2023-03-06T23:59:45.453Z,17.30
